sensor_id;sensor_type;location;lat;lon;timestamp;P1;durP1;ratioP1;P2;durP2;ratioP2
18695;SDS011;22617;43.690;27.956;2022-09-01T00:00:54;13.20;;;9.63;;
18695;SDS011;22617;43.690;27.956;2022-09-01T00:05:58;16.30;;;9.50;;
18695;SDS011;22617;43.690;27.956;2022-09-01T00:11:03;18.70;;;9.75;;
18695;SDS011;22617;43.690;27.956;2022-09-01T00:16:06;16.50;;;9.45;;
18695;SDS011;22617;43.690;27.956;2022-09-01T00:21:15;12.13;;;8.95;;
18695;SDS011;22617;43.690;27.956;2022-09-01T00:26:21;15.23;;;8.80;;
18695;SDS011;22617;43.690;27.956;2022-09-01T00:31:25;12.13;;;8.60;;
18695;SDS011;22617;43.690;27.956;2022-09-01T00:36:30;14.25;;;9.05;;
18695;SDS011;22617;43.690;27.956;2022-09-01T00:41:36;13.98;;;9.07;;
18695;SDS011;22617;43.690;27.956;2022-09-01T00:46:43;13.50;;;8.68;;
18695;SDS011;22617;43.690;27.956;2022-09-01T00:51:58;15.20;;;8.95;;
18695;SDS011;22617;43.690;27.956;2022-09-01T00:57:06;15.45;;;8.75;;
18695;SDS011;22617;43.690;27.956;2022-09-01T01:02:12;15.13;;;8.90;;
18695;SDS011;22617;43.690;27.956;2022-09-01T01:07:16;14.95;;;8.25;;
18695;SDS011;22617;43.690;27.956;2022-09-01T01:12:24;15.68;;;8.35;;
18695;SDS011;22617;43.690;27.956;2022-09-01T01:17:28;16.42;;;8.63;;
18695;SDS011;22617;43.690;27.956;2022-09-01T01:22:35;13.15;;;7.88;;
18695;SDS011;22617;43.690;27.956;2022-09-01T01:28:14;13.65;;;8.35;;
18695;SDS011;22617;43.690;27.956;2022-09-01T01:33:25;15.48;;;8.13;;
18695;SDS011;22617;43.690;27.956;2022-09-01T01:38:32;13.48;;;7.65;;
18695;SDS011;22617;43.690;27.956;2022-09-01T01:43:38;13.35;;;7.72;;
18695;SDS011;22617;43.690;27.956;2022-09-01T01:48:42;13.02;;;7.75;;
18695;SDS011;22617;43.690;27.956;2022-09-01T01:53:48;11.63;;;7.70;;
18695;SDS011;22617;43.690;27.956;2022-09-01T01:58:55;11.55;;;7.45;;
18695;SDS011;22617;43.690;27.956;2022-09-01T02:04:00;11.70;;;8.18;;
18695;SDS011;22617;43.690;27.956;2022-09-01T02:09:05;11.98;;;8.10;;
18695;SDS011;22617;43.690;27.956;2022-09-01T02:14:10;12.18;;;7.13;;
18695;SDS011;22617;43.690;27.956;2022-09-01T02:19:16;12.55;;;7.32;;
18695;SDS011;22617;43.690;27.956;2022-09-01T02:24:22;12.05;;;7.72;;
18695;SDS011;22617;43.690;27.956;2022-09-01T02:29:28;12.52;;;7.15;;
18695;SDS011;22617;43.690;27.956;2022-09-01T02:34:40;11.80;;;7.10;;
18695;SDS011;22617;43.690;27.956;2022-09-01T02:39:44;12.32;;;6.95;;
18695;SDS011;22617;43.690;27.956;2022-09-01T02:44:49;11.60;;;7.18;;
18695;SDS011;22617;43.690;27.956;2022-09-01T02:49:53;11.95;;;6.35;;
18695;SDS011;22617;43.690;27.956;2022-09-01T02:54:58;13.13;;;7.05;;
18695;SDS011;22617;43.690;27.956;2022-09-01T03:00:07;10.93;;;7.22;;
18695;SDS011;22617;43.690;27.956;2022-09-01T03:05:22;11.77;;;6.85;;
18695;SDS011;22617;43.690;27.956;2022-09-01T03:10:29;11.95;;;6.70;;
18695;SDS011;22617;43.690;27.956;2022-09-01T03:15:38;10.50;;;6.72;;
18695;SDS011;22617;43.690;27.956;2022-09-01T03:20:43;11.50;;;6.85;;
18695;SDS011;22617;43.690;27.956;2022-09-01T03:25:48;9.27;;;6.60;;
18695;SDS011;22617;43.690;27.956;2022-09-01T03:30:54;12.20;;;7.40;;
18695;SDS011;22617;43.690;27.956;2022-09-01T03:35:59;10.48;;;6.43;;
18695;SDS011;22617;43.690;27.956;2022-09-01T03:41:03;14.05;;;7.28;;
18695;SDS011;22617;43.690;27.956;2022-09-01T03:46:09;12.18;;;7.28;;
18695;SDS011;22617;43.690;27.956;2022-09-01T03:51:19;14.02;;;7.47;;
18695;SDS011;22617;43.690;27.956;2022-09-01T03:56:26;14.60;;;7.35;;
18695;SDS011;22617;43.690;27.956;2022-09-01T04:01:31;10.45;;;6.63;;
18695;SDS011;22617;43.690;27.956;2022-09-01T04:06:45;13.57;;;8.25;;
18695;SDS011;22617;43.690;27.956;2022-09-01T04:11:49;14.10;;;9.23;;
18695;SDS011;22617;43.690;27.956;2022-09-01T04:16:56;11.82;;;8.20;;
18695;SDS011;22617;43.690;27.956;2022-09-01T04:22:17;13.43;;;7.63;;
18695;SDS011;22617;43.690;27.956;2022-09-01T04:27:21;14.32;;;8.10;;
18695;SDS011;22617;43.690;27.956;2022-09-01T04:32:29;12.35;;;7.40;;
18695;SDS011;22617;43.690;27.956;2022-09-01T04:37:36;15.18;;;7.45;;
18695;SDS011;22617;43.690;27.956;2022-09-01T04:42:40;13.32;;;7.57;;
18695;SDS011;22617;43.690;27.956;2022-09-01T04:47:47;10.88;;;7.13;;
18695;SDS011;22617;43.690;27.956;2022-09-01T04:52:51;17.17;;;7.53;;
18695;SDS011;22617;43.690;27.956;2022-09-01T04:58:04;12.60;;;7.00;;
18695;SDS011;22617;43.690;27.956;2022-09-01T05:03:12;13.85;;;6.55;;
18695;SDS011;22617;43.690;27.956;2022-09-01T05:08:28;12.07;;;6.30;;
18695;SDS011;22617;43.690;27.956;2022-09-01T05:13:36;12.73;;;6.70;;
18695;SDS011;22617;43.690;27.956;2022-09-01T05:18:43;11.70;;;7.90;;
18695;SDS011;22617;43.690;27.956;2022-09-01T05:23:49;11.90;;;6.88;;
18695;SDS011;22617;43.690;27.956;2022-09-01T05:28:56;12.50;;;6.65;;
18695;SDS011;22617;43.690;27.956;2022-09-01T05:34:03;9.40;;;6.88;;
18695;SDS011;22617;43.690;27.956;2022-09-01T05:39:15;11.13;;;6.30;;
18695;SDS011;22617;43.690;27.956;2022-09-01T05:44:18;10.85;;;6.97;;
18695;SDS011;22617;43.690;27.956;2022-09-01T05:49:26;10.10;;;6.10;;
18695;SDS011;22617;43.690;27.956;2022-09-01T05:54:37;12.95;;;6.45;;
18695;SDS011;22617;43.690;27.956;2022-09-01T05:59:42;14.48;;;5.90;;
18695;SDS011;22617;43.690;27.956;2022-09-01T06:04:53;8.60;;;6.05;;
18695;SDS011;22617;43.690;27.956;2022-09-01T06:10:04;11.60;;;5.63;;
18695;SDS011;22617;43.690;27.956;2022-09-01T06:15:08;8.18;;;5.93;;
18695;SDS011;22617;43.690;27.956;2022-09-01T06:20:23;9.15;;;5.97;;
18695;SDS011;22617;43.690;27.956;2022-09-01T06:25:27;12.23;;;5.82;;
18695;SDS011;22617;43.690;27.956;2022-09-01T06:30:32;9.60;;;6.00;;
18695;SDS011;22617;43.690;27.956;2022-09-01T06:35:43;11.07;;;5.07;;
18695;SDS011;22617;43.690;27.956;2022-09-01T06:40:58;11.27;;;6.05;;
18695;SDS011;22617;43.690;27.956;2022-09-01T06:46:05;8.20;;;5.53;;
18695;SDS011;22617;43.690;27.956;2022-09-01T06:51:11;10.75;;;5.07;;
18695;SDS011;22617;43.690;27.956;2022-09-01T06:56:19;11.73;;;5.57;;
18695;SDS011;22617;43.690;27.956;2022-09-01T07:01:24;11.35;;;6.10;;
18695;SDS011;22617;43.690;27.956;2022-09-01T07:06:30;8.68;;;5.55;;
18695;SDS011;22617;43.690;27.956;2022-09-01T07:12:16;10.93;;;6.00;;
18695;SDS011;22617;43.690;27.956;2022-09-01T07:17:29;8.10;;;5.68;;
18695;SDS011;22617;43.690;27.956;2022-09-01T07:22:34;11.20;;;5.90;;
18695;SDS011;22617;43.690;27.956;2022-09-01T07:27:58;12.70;;;6.03;;
18695;SDS011;22617;43.690;27.956;2022-09-01T07:33:02;21.33;;;6.13;;
18695;SDS011;22617;43.690;27.956;2022-09-01T07:38:35;11.55;;;6.38;;
18695;SDS011;22617;43.690;27.956;2022-09-01T07:43:59;8.52;;;5.53;;
18695;SDS011;22617;43.690;27.956;2022-09-01T07:49:24;8.75;;;5.53;;
18695;SDS011;22617;43.690;27.956;2022-09-01T07:54:33;13.15;;;7.05;;
18695;SDS011;22617;43.690;27.956;2022-09-01T07:59:38;11.55;;;5.82;;
18695;SDS011;22617;43.690;27.956;2022-09-01T08:04:51;12.25;;;5.53;;
18695;SDS011;22617;43.690;27.956;2022-09-01T08:09:57;11.32;;;5.88;;
18695;SDS011;22617;43.690;27.956;2022-09-01T08:15:05;10.35;;;4.93;;
18695;SDS011;22617;43.690;27.956;2022-09-01T08:20:33;8.38;;;5.03;;
18695;SDS011;22617;43.690;27.956;2022-09-01T08:25:57;10.63;;;5.68;;
18695;SDS011;22617;43.690;27.956;2022-09-01T08:31:04;7.22;;;4.65;;
18695;SDS011;22617;43.690;27.956;2022-09-01T08:36:13;8.27;;;5.40;;
18695;SDS011;22617;43.690;27.956;2022-09-01T08:41:50;10.40;;;5.18;;
18695;SDS011;22617;43.690;27.956;2022-09-01T08:47:01;9.82;;;5.50;;
18695;SDS011;22617;43.690;27.956;2022-09-01T08:52:16;10.70;;;5.30;;
18695;SDS011;22617;43.690;27.956;2022-09-01T08:57:30;9.18;;;4.68;;
18695;SDS011;22617;43.690;27.956;2022-09-01T09:03:00;6.97;;;5.07;;
18695;SDS011;22617;43.690;27.956;2022-09-01T09:08:16;9.52;;;4.72;;
18695;SDS011;22617;43.690;27.956;2022-09-01T09:13:39;8.32;;;5.10;;
18695;SDS011;22617;43.690;27.956;2022-09-01T09:18:54;8.80;;;5.28;;
18695;SDS011;22617;43.690;27.956;2022-09-01T09:24:05;10.07;;;5.00;;
18695;SDS011;22617;43.690;27.956;2022-09-01T09:29:14;22.55;;;12.13;;
18695;SDS011;22617;43.690;27.956;2022-09-01T09:34:28;9.52;;;4.65;;
18695;SDS011;22617;43.690;27.956;2022-09-01T09:39:34;10.60;;;5.18;;
18695;SDS011;22617;43.690;27.956;2022-09-01T09:44:42;11.38;;;5.50;;
18695;SDS011;22617;43.690;27.956;2022-09-01T09:49:53;9.45;;;5.85;;
18695;SDS011;22617;43.690;27.956;2022-09-01T09:55:23;7.93;;;5.55;;
18695;SDS011;22617;43.690;27.956;2022-09-01T10:00:30;13.90;;;4.70;;
18695;SDS011;22617;43.690;27.956;2022-09-01T10:05:37;8.40;;;4.80;;
18695;SDS011;22617;43.690;27.956;2022-09-01T10:10:44;7.63;;;4.80;;
18695;SDS011;22617;43.690;27.956;2022-09-01T10:16:00;13.65;;;6.75;;
18695;SDS011;22617;43.690;27.956;2022-09-01T10:21:11;7.80;;;5.00;;
18695;SDS011;22617;43.690;27.956;2022-09-01T10:26:20;9.75;;;5.13;;
18695;SDS011;22617;43.690;27.956;2022-09-01T10:31:28;9.07;;;4.78;;
18695;SDS011;22617;43.690;27.956;2022-09-01T10:36:34;8.07;;;5.25;;
18695;SDS011;22617;43.690;27.956;2022-09-01T10:41:48;10.07;;;4.68;;
18695;SDS011;22617;43.690;27.956;2022-09-01T10:47:07;10.75;;;5.40;;
18695;SDS011;22617;43.690;27.956;2022-09-01T10:57:59;8.75;;;5.38;;
18695;SDS011;22617;43.690;27.956;2022-09-01T11:03:38;10.70;;;5.75;;
18695;SDS011;22617;43.690;27.956;2022-09-01T11:08:55;7.65;;;4.82;;
18695;SDS011;22617;43.690;27.956;2022-09-01T11:14:03;9.35;;;5.13;;
18695;SDS011;22617;43.690;27.956;2022-09-01T11:19:34;12.68;;;5.07;;
18695;SDS011;22617;43.690;27.956;2022-09-01T11:24:49;8.77;;;5.10;;
18695;SDS011;22617;43.690;27.956;2022-09-01T11:30:14;7.93;;;4.75;;
18695;SDS011;22617;43.690;27.956;2022-09-01T11:35:22;16.90;;;5.40;;
18695;SDS011;22617;43.690;27.956;2022-09-01T11:40:29;12.10;;;5.60;;
18695;SDS011;22617;43.690;27.956;2022-09-01T11:45:35;13.40;;;5.70;;
18695;SDS011;22617;43.690;27.956;2022-09-01T11:50:47;12.70;;;6.15;;
18695;SDS011;22617;43.690;27.956;2022-09-01T11:56:11;11.13;;;5.38;;
18695;SDS011;22617;43.690;27.956;2022-09-01T12:01:19;12.13;;;5.90;;
18695;SDS011;22617;43.690;27.956;2022-09-01T12:06:26;12.00;;;5.22;;
18695;SDS011;22617;43.690;27.956;2022-09-01T12:11:31;9.88;;;5.43;;
18695;SDS011;22617;43.690;27.956;2022-09-01T12:16:38;9.90;;;5.88;;
18695;SDS011;22617;43.690;27.956;2022-09-01T12:21:54;12.18;;;4.97;;
18695;SDS011;22617;43.690;27.956;2022-09-01T12:27:01;7.97;;;5.28;;
18695;SDS011;22617;43.690;27.956;2022-09-01T12:32:05;11.80;;;5.47;;
18695;SDS011;22617;43.690;27.956;2022-09-01T12:37:19;11.43;;;6.00;;
18695;SDS011;22617;43.690;27.956;2022-09-01T12:42:26;7.90;;;5.03;;
18695;SDS011;22617;43.690;27.956;2022-09-01T12:47:44;7.10;;;5.32;;
18695;SDS011;22617;43.690;27.956;2022-09-01T12:52:53;8.27;;;5.43;;
18695;SDS011;22617;43.690;27.956;2022-09-01T12:57:59;8.07;;;5.13;;
18695;SDS011;22617;43.690;27.956;2022-09-01T13:03:06;12.32;;;5.60;;
18695;SDS011;22617;43.690;27.956;2022-09-01T13:08:17;10.25;;;5.32;;
18695;SDS011;22617;43.690;27.956;2022-09-01T13:13:22;11.25;;;5.68;;
18695;SDS011;22617;43.690;27.956;2022-09-01T13:18:27;11.77;;;5.07;;
18695;SDS011;22617;43.690;27.956;2022-09-01T13:23:33;8.50;;;5.05;;
18695;SDS011;22617;43.690;27.956;2022-09-01T13:28:37;6.70;;;4.97;;
18695;SDS011;22617;43.690;27.956;2022-09-01T13:33:41;10.68;;;5.25;;
18695;SDS011;22617;43.690;27.956;2022-09-01T13:39:06;12.25;;;5.30;;
18695;SDS011;22617;43.690;27.956;2022-09-01T13:44:10;8.32;;;4.80;;
18695;SDS011;22617;43.690;27.956;2022-09-01T13:49:14;8.80;;;5.05;;
18695;SDS011;22617;43.690;27.956;2022-09-01T13:54:39;9.10;;;5.00;;
18695;SDS011;22617;43.690;27.956;2022-09-01T13:59:45;7.88;;;4.63;;
18695;SDS011;22617;43.690;27.956;2022-09-01T14:04:48;7.72;;;4.78;;
18695;SDS011;22617;43.690;27.956;2022-09-01T14:09:53;9.45;;;4.90;;
18695;SDS011;22617;43.690;27.956;2022-09-01T14:14:57;8.20;;;5.28;;
18695;SDS011;22617;43.690;27.956;2022-09-01T14:20:22;7.28;;;4.93;;
18695;SDS011;22617;43.690;27.956;2022-09-01T14:25:30;9.05;;;5.25;;
18695;SDS011;22617;43.690;27.956;2022-09-01T14:30:34;17.55;;;5.32;;
18695;SDS011;22617;43.690;27.956;2022-09-01T14:35:39;7.53;;;4.78;;
18695;SDS011;22617;43.690;27.956;2022-09-01T14:40:47;9.90;;;4.85;;
18695;SDS011;22617;43.690;27.956;2022-09-01T14:46:00;10.13;;;4.65;;
18695;SDS011;22617;43.690;27.956;2022-09-01T14:51:07;7.25;;;4.50;;
18695;SDS011;22617;43.690;27.956;2022-09-01T14:56:13;7.07;;;4.47;;
18695;SDS011;22617;43.690;27.956;2022-09-01T15:01:19;7.70;;;4.50;;
18695;SDS011;22617;43.690;27.956;2022-09-01T15:06:35;7.97;;;4.65;;
18695;SDS011;22617;43.690;27.956;2022-09-01T15:11:40;8.63;;;4.55;;
18695;SDS011;22617;43.690;27.956;2022-09-01T15:16:46;8.38;;;4.38;;
18695;SDS011;22617;43.690;27.956;2022-09-01T15:21:49;7.78;;;4.72;;
18695;SDS011;22617;43.690;27.956;2022-09-01T15:26:54;8.15;;;4.43;;
18695;SDS011;22617;43.690;27.956;2022-09-01T15:31:58;10.98;;;4.43;;
18695;SDS011;22617;43.690;27.956;2022-09-01T15:37:03;7.57;;;4.47;;
18695;SDS011;22617;43.690;27.956;2022-09-01T15:42:09;9.43;;;4.75;;
18695;SDS011;22617;43.690;27.956;2022-09-01T15:47:12;9.30;;;4.03;;
18695;SDS011;22617;43.690;27.956;2022-09-01T15:52:16;5.00;;;3.70;;
18695;SDS011;22617;43.690;27.956;2022-09-01T15:57:23;6.30;;;4.03;;
18695;SDS011;22617;43.690;27.956;2022-09-01T16:02:27;5.88;;;3.88;;
18695;SDS011;22617;43.690;27.956;2022-09-01T16:07:31;6.07;;;4.03;;
18695;SDS011;22617;43.690;27.956;2022-09-01T16:12:36;6.93;;;3.63;;
18695;SDS011;22617;43.690;27.956;2022-09-01T16:17:47;6.53;;;3.95;;
18695;SDS011;22617;43.690;27.956;2022-09-01T16:23:02;6.57;;;3.75;;
18695;SDS011;22617;43.690;27.956;2022-09-01T16:28:19;9.32;;;3.90;;
18695;SDS011;22617;43.690;27.956;2022-09-01T16:33:26;4.75;;;3.33;;
18695;SDS011;22617;43.690;27.956;2022-09-01T16:38:33;5.25;;;3.63;;
18695;SDS011;22617;43.690;27.956;2022-09-01T16:43:46;8.73;;;3.72;;
18695;SDS011;22617;43.690;27.956;2022-09-01T16:48:59;6.97;;;3.60;;
18695;SDS011;22617;43.690;27.956;2022-09-01T16:54:14;6.05;;;3.33;;
18695;SDS011;22617;43.690;27.956;2022-09-01T16:59:29;7.07;;;4.10;;
18695;SDS011;22617;43.690;27.956;2022-09-01T17:04:39;6.82;;;3.42;;
18695;SDS011;22617;43.690;27.956;2022-09-01T17:09:57;6.03;;;3.70;;
18695;SDS011;22617;43.690;27.956;2022-09-01T17:15:08;6.35;;;3.80;;
18695;SDS011;22617;43.690;27.956;2022-09-01T17:20:14;8.68;;;4.40;;
18695;SDS011;22617;43.690;27.956;2022-09-01T17:25:22;8.43;;;4.13;;
18695;SDS011;22617;43.690;27.956;2022-09-01T17:30:32;7.22;;;4.50;;
18695;SDS011;22617;43.690;27.956;2022-09-01T17:35:48;9.75;;;4.72;;
18695;SDS011;22617;43.690;27.956;2022-09-01T17:41:04;7.72;;;5.13;;
18695;SDS011;22617;43.690;27.956;2022-09-01T17:46:21;14.40;;;5.15;;
18695;SDS011;22617;43.690;27.956;2022-09-01T17:51:37;7.68;;;4.25;;
18695;SDS011;22617;43.690;27.956;2022-09-01T17:56:47;6.97;;;4.00;;
18695;SDS011;22617;43.690;27.956;2022-09-01T18:02:03;7.32;;;4.43;;
18695;SDS011;22617;43.690;27.956;2022-09-01T18:12:51;7.80;;;4.22;;
18695;SDS011;22617;43.690;27.956;2022-09-01T18:18:05;7.70;;;4.18;;
18695;SDS011;22617;43.690;27.956;2022-09-01T18:23:25;9.18;;;3.88;;
18695;SDS011;22617;43.690;27.956;2022-09-01T18:28:33;6.82;;;4.18;;
18695;SDS011;22617;43.690;27.956;2022-09-01T18:33:40;8.98;;;4.38;;
18695;SDS011;22617;43.690;27.956;2022-09-01T18:38:49;8.77;;;4.60;;
18695;SDS011;22617;43.690;27.956;2022-09-01T18:44:13;7.85;;;3.85;;
18695;SDS011;22617;43.690;27.956;2022-09-01T18:49:34;7.22;;;3.85;;
18695;SDS011;22617;43.690;27.956;2022-09-01T18:54:54;7.65;;;4.45;;
18695;SDS011;22617;43.690;27.956;2022-09-01T19:00:06;7.43;;;3.97;;
18695;SDS011;22617;43.690;27.956;2022-09-01T19:05:24;7.20;;;4.10;;
18695;SDS011;22617;43.690;27.956;2022-09-01T19:10:35;7.07;;;4.10;;
18695;SDS011;22617;43.690;27.956;2022-09-01T19:15:46;5.55;;;3.92;;
18695;SDS011;22617;43.690;27.956;2022-09-01T19:21:00;6.82;;;4.25;;
18695;SDS011;22617;43.690;27.956;2022-09-01T19:26:13;5.07;;;3.75;;
18695;SDS011;22617;43.690;27.956;2022-09-01T19:31:22;5.57;;;4.07;;
18695;SDS011;22617;43.690;27.956;2022-09-01T19:36:32;7.82;;;4.07;;
18695;SDS011;22617;43.690;27.956;2022-09-01T19:41:41;6.97;;;3.95;;
18695;SDS011;22617;43.690;27.956;2022-09-01T19:46:48;8.02;;;3.70;;
18695;SDS011;22617;43.690;27.956;2022-09-01T19:51:57;8.30;;;4.10;;
18695;SDS011;22617;43.690;27.956;2022-09-01T19:57:08;7.32;;;3.88;;
18695;SDS011;22617;43.690;27.956;2022-09-01T20:02:18;6.65;;;3.63;;
18695;SDS011;22617;43.690;27.956;2022-09-01T20:07:30;8.88;;;3.80;;
18695;SDS011;22617;43.690;27.956;2022-09-01T20:12:39;6.38;;;4.22;;
18695;SDS011;22617;43.690;27.956;2022-09-01T20:17:50;8.25;;;3.97;;
18695;SDS011;22617;43.690;27.956;2022-09-01T20:23:01;6.80;;;4.18;;
18695;SDS011;22617;43.690;27.956;2022-09-01T20:28:12;6.68;;;4.20;;
18695;SDS011;22617;43.690;27.956;2022-09-01T20:33:27;6.82;;;4.32;;
18695;SDS011;22617;43.690;27.956;2022-09-01T20:38:40;5.82;;;4.20;;
18695;SDS011;22617;43.690;27.956;2022-09-01T20:44:08;7.68;;;5.00;;
18695;SDS011;22617;43.690;27.956;2022-09-01T20:49:18;7.03;;;4.85;;
18695;SDS011;22617;43.690;27.956;2022-09-01T20:54:26;8.07;;;4.55;;
18695;SDS011;22617;43.690;27.956;2022-09-01T20:59:37;6.10;;;4.25;;
18695;SDS011;22617;43.690;27.956;2022-09-01T21:04:47;5.95;;;4.63;;
18695;SDS011;22617;43.690;27.956;2022-09-01T21:10:01;7.18;;;4.72;;
18695;SDS011;22617;43.690;27.956;2022-09-01T21:15:12;7.40;;;4.85;;
18695;SDS011;22617;43.690;27.956;2022-09-01T21:20:31;11.93;;;4.40;;
18695;SDS011;22617;43.690;27.956;2022-09-01T21:25:46;8.07;;;4.68;;
18695;SDS011;22617;43.690;27.956;2022-09-01T21:30:51;5.82;;;4.50;;
18695;SDS011;22617;43.690;27.956;2022-09-01T21:35:58;7.85;;;4.63;;
18695;SDS011;22617;43.690;27.956;2022-09-01T21:41:04;6.57;;;5.00;;
18695;SDS011;22617;43.690;27.956;2022-09-01T21:46:14;7.10;;;5.32;;
18695;SDS011;22617;43.690;27.956;2022-09-01T21:51:17;7.80;;;5.13;;
18695;SDS011;22617;43.690;27.956;2022-09-01T21:56:23;9.30;;;4.85;;
18695;SDS011;22617;43.690;27.956;2022-09-01T22:01:26;9.88;;;4.93;;
18695;SDS011;22617;43.690;27.956;2022-09-01T22:06:32;7.32;;;5.30;;
18695;SDS011;22617;43.690;27.956;2022-09-01T22:11:38;6.28;;;4.65;;
18695;SDS011;22617;43.690;27.956;2022-09-01T22:16:41;7.70;;;5.65;;
18695;SDS011;22617;43.690;27.956;2022-09-01T22:21:45;7.95;;;5.22;;
18695;SDS011;22617;43.690;27.956;2022-09-01T22:26:50;8.05;;;4.95;;
18695;SDS011;22617;43.690;27.956;2022-09-01T22:31:54;9.75;;;5.18;;
18695;SDS011;22617;43.690;27.956;2022-09-01T22:36:57;9.07;;;5.03;;
18695;SDS011;22617;43.690;27.956;2022-09-01T22:42:03;8.57;;;4.45;;
18695;SDS011;22617;43.690;27.956;2022-09-01T22:47:07;8.70;;;4.75;;
18695;SDS011;22617;43.690;27.956;2022-09-01T22:52:11;10.95;;;5.10;;
18695;SDS011;22617;43.690;27.956;2022-09-01T22:57:16;9.80;;;5.20;;
18695;SDS011;22617;43.690;27.956;2022-09-01T23:02:20;6.47;;;4.70;;
18695;SDS011;22617;43.690;27.956;2022-09-01T23:07:24;10.60;;;5.30;;
18695;SDS011;22617;43.690;27.956;2022-09-01T23:12:29;10.13;;;5.45;;
18695;SDS011;22617;43.690;27.956;2022-09-01T23:17:33;10.50;;;5.30;;
18695;SDS011;22617;43.690;27.956;2022-09-01T23:22:37;7.47;;;5.10;;
18695;SDS011;22617;43.690;27.956;2022-09-01T23:27:42;11.15;;;5.38;;
18695;SDS011;22617;43.690;27.956;2022-09-01T23:32:46;7.22;;;5.15;;
18695;SDS011;22617;43.690;27.956;2022-09-01T23:37:49;8.70;;;5.22;;
18695;SDS011;22617;43.690;27.956;2022-09-01T23:42:54;10.10;;;4.93;;
18695;SDS011;22617;43.690;27.956;2022-09-01T23:47:58;8.40;;;5.38;;
18695;SDS011;22617;43.690;27.956;2022-09-01T23:53:02;7.78;;;4.70;;
18695;SDS011;22617;43.690;27.956;2022-09-01T23:58:06;9.50;;;5.30;;
